Time;durP1;ratioP1;P1;durP2;ratioP2;P2;SDS_P1;SDS_P2;PMS_P1;PMS_P2;Temp;Humidity;BMP_temperature;BMP_pressure;BME280_temperature;BME280_humidity;BME280_pressure;Samples;Min_cycle;Max_cycle;Signal;HPM_P1;HPM_P2
2022/05/24 00:00:27;;;;;;;31.85;9.45;;;28.80;85.60;;;;;;5106563;28;20212;-52
2022/05/24 00:03:01;;;;;;;37.97;9.48;;;28.80;85.80;;;;;;5106222;28;20099;-63
2022/05/24 00:05:52;;;;;;;33.58;10.30;;;28.80;85.90;;;;;;5088059;28;20027;-53
2022/05/24 00:08:18;;;;;;;34.80;9.95;;;28.80;85.80;;;;;;5106110;28;20221;-55
2022/05/24 00:10:45;;;;;;;33.83;10.43;;;28.80;85.80;;;;;;5105738;28;20023;-50
2022/05/24 00:13:21;;;;;;;43.13;13.82;;;28.80;85.60;;;;;;5106955;28;20065;-50
2022/05/24 00:16:06;;;;;;;43.22;11.73;;;28.80;85.50;;;;;;5107371;28;20022;-61
2022/05/24 00:18:38;;;;;;;32.03;9.95;;;28.80;85.40;;;;;;5106355;28;20028;-54
2022/05/24 00:21:08;;;;;;;32.30;9.93;;;28.80;85.60;;;;;;5106282;28;20032;-55
2022/05/24 00:23:46;;;;;;;33.13;10.20;;;28.80;85.50;;;;;;5106580;28;20058;-50
2022/05/24 00:27:40;;;;;;;30.95;9.45;;;28.70;85.50;;;;;;5107592;28;20024;-49
2022/05/24 00:30:11;;;;;;;29.75;10.00;;;28.70;85.30;;;;;;5081989;28;20373;-55
2022/05/24 00:32:38;;;;;;;31.20;10.18;;;28.70;85.30;;;;;;5068512;28;20037;-51
2022/05/24 00:35:05;;;;;;;35.30;9.82;;;28.70;85.20;;;;;;5083857;28;20056;-53
2022/05/24 00:37:45;;;;;;;34.10;10.30;;;28.70;85.40;;;;;;5022289;28;20062;-53
2022/05/24 00:40:42;;;;;;;40.13;9.85;;;28.70;85.30;;;;;;5090188;28;20024;-49
2022/05/24 00:43:34;;;;;;;33.72;11.20;;;28.70;85.20;;;;;;5023124;28;20162;-51
2022/05/24 00:46:28;;;;;;;41.58;10.63;;;28.70;85.10;;;;;;5084774;28;20326;-59
2022/05/24 00:49:03;;;;;;;34.08;10.60;;;28.70;85.30;;;;;;5026123;28;20041;-56
2022/05/24 00:51:58;;;;;;;36.30;10.93;;;28.70;85.30;;;;;;5022876;28;20029;-57
2022/05/24 00:54:25;;;;;;;31.00;11.70;;;28.70;85.30;;;;;;5021986;28;20045;-52
2022/05/24 00:57:18;;;;;;;33.78;12.27;;;28.60;85.30;;;;;;5022645;28;20033;-51
2022/05/24 01:00:08;;;;;;;40.47;12.43;;;28.60;85.20;;;;;;5004943;28;20026;-47
2022/05/24 01:02:50;;;;;;;42.67;14.57;;;28.60;85.30;;;;;;5022133;28;20326;-54
2022/05/24 01:05:40;;;;;;;46.35;14.40;;;28.60;85.30;;;;;;5022054;28;20093;-57
2022/05/24 01:08:07;;;;;;;38.95;13.82;;;28.60;85.50;;;;;;5021951;28;20026;-52
2022/05/24 01:10:48;;;;;;;39.53;13.35;;;28.60;85.60;;;;;;5022020;28;20014;-48
2022/05/24 01:13:34;;;;;;;38.43;12.40;;;28.60;85.60;;;;;;5087304;28;20026;-51
2022/05/24 01:16:10;;;;;;;28.20;11.70;;;28.60;86.00;;;;;;5089713;28;20046;-57
2022/05/24 01:18:37;;;;;;;32.63;11.40;;;28.50;85.20;;;;;;5021653;28;20057;-54
2022/05/24 01:21:36;;;;;;;38.50;11.55;;;28.50;85.30;;;;;;5089746;28;20025;-56
2022/05/24 01:24:34;;;;;;;34.78;9.73;;;28.50;85.30;;;;;;5022486;28;20044;-51
2022/05/24 01:27:20;;;;;;;30.30;8.00;;;28.50;84.90;;;;;;5034481;28;20210;-54
2022/05/24 01:29:47;;;;;;;26.48;7.25;;;28.40;84.00;;;;;;5062305;28;20298;-57
2022/05/24 01:37:43;;;;;;;22.50;7.00;;;28.30;83.90;;;;;;4996580;28;20025;-55
2022/05/24 01:40:10;;;;;;;29.63;7.22;;;28.30;83.70;;;;;;4982998;28;20322;-53
2022/05/24 01:42:40;;;;;;;22.38;6.30;;;28.20;83.70;;;;;;4991514;28;20046;-55
2022/05/24 01:45:09;;;;;;;26.00;6.20;;;28.20;83.70;;;;;;5069985;28;20197;-57
2022/05/24 01:47:52;;;;;;;23.58;6.28;;;28.20;83.70;;;;;;5002517;28;20067;-59
2022/05/24 01:50:26;;;;;;;24.52;6.72;;;28.20;83.60;;;;;;5001968;28;20018;-54
2022/05/24 01:52:57;;;;;;;24.48;6.55;;;28.20;83.50;;;;;;5002442;28;20097;-62
2022/05/24 01:55:33;;;;;;;21.85;6.72;;;28.20;83.80;;;;;;5000971;28;20298;-58
2022/05/24 01:58:04;;;;;;;22.95;6.88;;;28.20;83.70;;;;;;5001899;28;20218;-59
2022/05/24 02:00:34;;;;;;;20.33;6.15;;;28.20;83.40;;;;;;5001634;28;20037;-53
2022/05/24 02:03:11;;;;;;;20.05;6.35;;;28.10;83.50;;;;;;5001905;28;20294;-58
2022/05/24 02:05:40;;;;;;;17.98;6.10;;;28.10;83.50;;;;;;5001781;28;20025;-53
2022/05/24 02:08:08;;;;;;;16.02;5.70;;;28.00;84.00;;;;;;5017106;28;20018;-55
2022/05/24 02:11:07;;;;;;;22.25;6.50;;;28.00;84.00;;;;;;5018518;28;20030;-56
2022/05/24 02:13:41;;;;;;;26.75;6.43;;;27.90;83.80;;;;;;5021094;28;20026;-59
2022/05/24 02:16:13;;;;;;;22.65;6.05;;;27.90;83.60;;;;;;5011581;28;20229;-57
2022/05/24 02:18:45;;;;;;;27.15;6.03;;;27.90;83.70;;;;;;5001522;28;20030;-52
2022/05/24 02:21:12;;;;;;;21.48;5.47;;;27.90;83.70;;;;;;5068622;28;20036;-53
2022/05/24 02:23:44;;;;;;;24.35;5.78;;;27.90;83.60;;;;;;5001511;28;20091;-53
2022/05/24 02:26:13;;;;;;;22.52;6.70;;;27.90;83.50;;;;;;5000135;28;20045;-53
2022/05/24 02:28:40;;;;;;;23.52;6.38;;;27.80;83.80;;;;;;5000728;28;20044;-52
2022/05/24 02:31:11;;;;;;;24.33;7.03;;;27.90;83.90;;;;;;4999086;28;20026;-53
2022/05/24 02:33:47;;;;;;;30.00;6.28;;;27.90;83.70;;;;;;5072854;28;20026;-59
2022/05/24 02:36:15;;;;;;;24.08;6.78;;;27.90;83.80;;;;;;5006670;28;20079;-55
2022/05/24 02:38:48;;;;;;;25.58;6.70;;;27.90;83.90;;;;;;5024206;28;20024;-53
2022/05/24 02:41:31;;;;;;;23.15;6.00;;;27.90;84.10;;;;;;5013240;28;20077;-51
2022/05/24 02:44:07;;;;;;;20.27;6.22;;;27.80;84.30;;;;;;5011004;28;20305;-55
2022/05/24 02:46:39;;;;;;;21.98;5.95;;;27.80;84.30;;;;;;5009561;28;20035;-53
2022/05/24 02:49:20;;;;;;;20.50;6.18;;;27.80;84.10;;;;;;5023814;28;20355;-54
2022/05/24 02:51:50;;;;;;;23.23;6.82;;;27.80;84.30;;;;;;5003546;28;20089;-50
2022/05/24 02:54:23;;;;;;;23.15;6.13;;;27.80;84.20;;;;;;4997738;28;20264;-54
2022/05/24 02:57:13;;;;;;;24.73;6.47;;;27.80;84.00;;;;;;5004110;28;20373;-55
2022/05/24 02:59:39;;;;;;;20.83;6.28;;;27.80;84.00;;;;;;5001568;28;20022;-52
2022/05/24 03:02:06;;;;;;;21.73;7.10;;;27.80;83.90;;;;;;5047621;28;20028;-56
2022/05/24 03:04:35;;;;;;;21.45;6.95;;;27.80;84.00;;;;;;5058389;28;20016;-57
2022/05/24 03:09:46;;;;;;;19.90;6.30;;;27.80;84.20;;;;;;5043314;28;20438;-49
2022/05/24 03:14:58;;;;;;;22.42;7.75;;;27.80;84.60;;;;;;5059986;28;20024;-53
2022/05/24 03:17:27;;;;;;;19.40;6.50;;;27.80;84.70;;;;;;5077282;28;20070;-51
2022/05/24 03:20:15;;;;;;;19.48;7.03;;;27.70;84.60;;;;;;5106165;28;20117;-56
2022/05/24 03:22:44;;;;;;;20.90;7.15;;;27.80;84.60;;;;;;5101257;28;20058;-50
2022/05/24 03:25:19;;;;;;;26.02;10.70;;;27.80;84.60;;;;;;5069402;28;20020;-53
2022/05/24 03:27:49;;;;;;;26.48;15.00;;;27.80;84.60;;;;;;5069138;28;20024;-57
2022/05/24 03:30:16;;;;;;;29.83;13.02;;;27.80;84.50;;;;;;5086465;28;20017;-53
2022/05/24 03:32:43;;;;;;;29.45;11.70;;;27.80;84.50;;;;;;5086565;28;20204;-50
2022/05/24 03:35:14;;;;;;;27.50;10.82;;;27.80;84.40;;;;;;5087158;28;20292;-51
2022/05/24 03:37:41;;;;;;;23.17;8.77;;;27.80;84.30;;;;;;5086368;28;20122;-50
2022/05/24 03:40:10;;;;;;;20.52;8.68;;;27.80;84.20;;;;;;5086750;28;20043;-55
2022/05/24 03:42:40;;;;;;;26.75;9.57;;;27.80;84.40;;;;;;5086741;28;20016;-52
2022/05/24 03:45:09;;;;;;;23.10;8.70;;;27.80;84.30;;;;;;5086694;28;20040;-53
2022/05/24 03:47:37;;;;;;;21.17;7.85;;;27.80;84.10;;;;;;5068579;28;20027;-57
2022/05/24 03:50:08;;;;;;;21.15;7.47;;;27.80;84.20;;;;;;5086145;28;20250;-51
2022/05/24 03:52:58;;;;;;;22.67;7.35;;;27.80;84.20;;;;;;5087328;28;20204;-54
2022/05/24 03:55:25;;;;;;;22.00;7.00;;;27.80;84.30;;;;;;5086520;28;20091;-55
2022/05/24 03:58:01;;;;;;;18.92;6.85;;;27.80;84.30;;;;;;5086848;28;20017;-60
2022/05/24 04:00:40;;;;;;;23.38;6.82;;;27.80;84.20;;;;;;5086350;28;20028;-57
2022/05/24 04:03:08;;;;;;;22.63;6.97;;;27.80;84.10;;;;;;5086165;28;20028;-48
2022/05/24 04:05:36;;;;;;;21.20;6.65;;;27.80;84.10;;;;;;5086374;28;20031;-48
2022/05/24 04:08:03;;;;;;;22.08;6.53;;;27.80;84.10;;;;;;5085697;28;20013;-47
2022/05/24 04:10:32;;;;;;;23.38;6.88;;;27.80;84.10;;;;;;5086077;28;20021;-53
2022/05/24 04:13:00;;;;;;;23.45;6.72;;;27.80;84.00;;;;;;5085840;28;20023;-48
2022/05/24 04:15:26;;;;;;;21.35;6.40;;;27.80;84.00;;;;;;5085819;28;20032;-51
2022/05/24 04:17:55;;;;;;;24.02;6.43;;;27.80;84.10;;;;;;5081955;28;20056;-50
2022/05/24 04:20:27;;;;;;;22.30;6.93;;;27.80;84.00;;;;;;5085803;28;20099;-56
2022/05/24 04:22:57;;;;;;;18.80;5.85;;;27.80;83.90;;;;;;5084446;28;20212;-53
2022/05/24 04:25:25;;;;;;;19.73;6.75;;;27.80;83.90;;;;;;5085867;28;20032;-49
2022/05/24 04:27:51;;;;;;;19.98;6.38;;;27.80;84.00;;;;;;5086005;28;20017;-46
2022/05/24 04:30:18;;;;;;;20.90;6.50;;;27.80;83.90;;;;;;5085549;28;20019;-53
2022/05/24 04:32:45;;;;;;;20.45;6.22;;;27.80;84.00;;;;;;5085354;28;20123;-54
2022/05/24 04:35:12;;;;;;;23.65;5.82;;;27.70;83.90;;;;;;5085299;28;20219;-49
2022/05/24 04:37:38;;;;;;;20.60;6.30;;;27.70;84.00;;;;;;5085336;28;20071;-49
2022/05/24 04:40:07;;;;;;;22.45;5.88;;;27.80;83.90;;;;;;5085404;28;20240;-54
2022/05/24 04:42:34;;;;;;;21.73;5.93;;;27.80;83.80;;;;;;5085167;28;20013;-55
2022/05/24 04:45:06;;;;;;;24.95;6.50;;;27.80;83.70;;;;;;5085088;28;20020;-51
2022/05/24 04:47:33;;;;;;;17.13;6.15;;;27.70;83.50;;;;;;5085178;28;20016;-49
2022/05/24 04:50:02;;;;;;;21.60;6.13;;;27.70;83.50;;;;;;5084340;28;20050;-51
2022/05/24 04:52:32;;;;;;;23.67;6.35;;;27.70;83.50;;;;;;5085037;28;20028;-46
2022/05/24 04:54:59;;;;;;;20.58;6.32;;;27.70;83.30;;;;;;5084935;28;20012;-46
2022/05/24 04:57:25;;;;;;;20.48;6.20;;;27.70;83.30;;;;;;5084810;28;20066;-48
2022/05/24 04:59:52;;;;;;;25.55;6.25;;;27.70;83.10;;;;;;5084856;28;20028;-52
2022/05/24 05:02:20;;;;;;;24.13;5.90;;;27.70;83.20;;;;;;5084996;28;20080;-52
2022/05/24 05:04:50;;;;;;;20.75;6.30;;;27.70;83.00;;;;;;5084795;28;20027;-55
2022/05/24 05:07:19;;;;;;;23.83;6.15;;;27.70;83.10;;;;;;5084801;28;20016;-50
2022/05/24 05:09:47;;;;;;;24.95;5.88;;;27.70;83.10;;;;;;5084708;28;20024;-52
2022/05/24 05:12:14;;;;;;;26.50;6.70;;;27.70;83.10;;;;;;5084653;28;20260;-53
2022/05/24 05:14:44;;;;;;;24.55;6.05;;;27.70;83.10;;;;;;5084785;28;20040;-46
2022/05/24 05:17:12;;;;;;;20.55;6.10;;;27.70;83.00;;;;;;5045055;28;20046;-45
2022/05/24 05:19:39;;;;;;;22.75;6.72;;;27.70;83.00;;;;;;5002146;28;20022;-52
2022/05/24 05:22:07;;;;;;;21.90;6.38;;;27.70;82.90;;;;;;5002282;28;20087;-53
2022/05/24 05:24:33;;;;;;;23.75;6.15;;;27.70;83.00;;;;;;5002353;28;20014;-50
2022/05/24 05:27:01;;;;;;;22.00;6.40;;;27.70;83.00;;;;;;5002465;28;20030;-51
2022/05/24 05:32:22;;;;;;;27.48;6.95;;;27.70;83.10;;;;;;5001971;28;20094;-53
2022/05/24 05:34:49;;;;;;;23.92;6.75;;;27.70;83.00;;;;;;5001923;28;20019;-47
2022/05/24 05:37:16;;;;;;;20.40;6.00;;;27.60;82.80;;;;;;5002086;28;20030;-47
2022/05/24 05:39:43;;;;;;;20.42;6.20;;;27.60;83.00;;;;;;5001776;28;20302;-50
2022/05/24 05:42:10;;;;;;;23.45;6.57;;;27.60;83.10;;;;;;5001992;28;20029;-52
2022/05/24 05:44:36;;;;;;;25.35;6.50;;;27.70;83.10;;;;;;5002453;28;20046;-54
2022/05/24 05:47:03;;;;;;;19.80;6.57;;;27.70;82.90;;;;;;5002183;28;20057;-52
2022/05/24 05:49:30;;;;;;;21.77;6.80;;;27.70;83.00;;;;;;5001656;28;20059;-47
2022/05/24 05:51:56;;;;;;;26.92;7.20;;;27.60;83.10;;;;;;5002643;28;20214;-52
2022/05/24 05:54:24;;;;;;;24.58;6.90;;;27.60;83.10;;;;;;5001072;28;20294;-56
2022/05/24 05:56:51;;;;;;;24.40;6.80;;;27.60;83.10;;;;;;5002434;28;20034;-48
2022/05/24 05:59:18;;;;;;;23.67;7.07;;;27.70;83.10;;;;;;5001628;28;20025;-50
2022/05/24 06:01:45;;;;;;;22.75;6.82;;;27.60;83.10;;;;;;4993082;28;20026;-54
2022/05/24 06:04:12;;;;;;;33.03;7.53;;;27.70;83.10;;;;;;4986975;28;20226;-53
2022/05/24 06:06:42;;;;;;;28.08;7.13;;;27.70;83.10;;;;;;4982376;28;20030;-54
2022/05/24 06:09:08;;;;;;;30.85;6.93;;;27.70;83.10;;;;;;4982053;28;20019;-53
2022/05/24 06:11:35;;;;;;;22.17;6.55;;;27.60;83.10;;;;;;4982536;28;20066;-48
2022/05/24 06:14:01;;;;;;;24.77;6.40;;;27.60;83.10;;;;;;5048992;28;20015;-47
2022/05/24 06:16:28;;;;;;;27.23;7.18;;;27.60;83.80;;;;;;4981929;28;20042;-48
2022/05/24 06:18:55;;;;;;;24.98;6.72;;;27.60;83.40;;;;;;4982340;28;20037;-50
2022/05/24 06:21:22;;;;;;;20.70;6.18;;;27.60;83.50;;;;;;4987032;28;20026;-56
2022/05/24 06:23:49;;;;;;;19.98;6.22;;;27.60;83.40;;;;;;5016760;28;20081;-49
2022/05/24 06:26:18;;;;;;;20.40;6.50;;;27.60;83.40;;;;;;5012496;28;20033;-51
2022/05/24 06:28:45;;;;;;;22.08;6.10;;;27.60;83.30;;;;;;4998833;28;20026;-48
2022/05/24 06:31:12;;;;;;;21.75;5.93;;;27.60;83.50;;;;;;4988399;28;20019;-56
2022/05/24 06:33:38;;;;;;;21.50;6.20;;;27.60;83.50;;;;;;5000186;28;20022;-48
2022/05/24 06:36:05;;;;;;;25.08;5.88;;;27.50;83.60;;;;;;5000646;28;20102;-47
2022/05/24 06:38:32;;;;;;;19.33;6.50;;;27.50;83.80;;;;;;4999976;28;20019;-50
2022/05/24 06:40:58;;;;;;;19.52;5.93;;;27.50;83.90;;;;;;5000366;28;20041;-50
2022/05/24 06:43:25;;;;;;;19.95;6.35;;;27.50;84.00;;;;;;5000159;28;20019;-55
2022/05/24 06:45:52;;;;;;;14.57;5.13;;;27.50;84.00;;;;;;4999958;28;20026;-50
2022/05/24 06:48:18;;;;;;;18.92;5.60;;;27.50;83.90;;;;;;5000213;28;20027;-49
2022/05/24 06:50:45;;;;;;;17.35;5.53;;;27.50;83.90;;;;;;5000210;28;20022;-49
2022/05/24 06:53:12;;;;;;;21.88;5.63;;;27.50;83.90;;;;;;4999920;28;20021;-50
2022/05/24 06:55:39;;;;;;;16.98;5.80;;;27.50;83.90;;;;;;5000232;28;20037;-48
2022/05/24 06:58:06;;;;;;;17.08;5.10;;;27.50;83.80;;;;;;4999942;28;20249;-51
2022/05/24 07:03:18;;;;;;;18.50;5.18;;;27.50;83.70;;;;;;4997564;28;20030;-53
2022/05/24 07:05:45;;;;;;;16.08;5.68;;;27.50;83.80;;;;;;4999916;28;20030;-48
2022/05/24 07:08:12;;;;;;;16.95;5.55;;;27.50;83.60;;;;;;4999598;28;20074;-54
2022/05/24 07:10:41;;;;;;;19.75;5.45;;;27.50;83.70;;;;;;4999899;28;20030;-58
2022/05/24 07:13:11;;;;;;;15.70;5.45;;;27.50;83.70;;;;;;5000948;28;20030;-49
2022/05/24 07:15:38;;;;;;;15.95;5.30;;;27.50;83.70;;;;;;5067044;28;20038;-47
2022/05/24 07:18:05;;;;;;;18.48;5.45;;;27.50;83.60;;;;;;5082561;28;20336;-47
2022/05/24 07:20:33;;;;;;;17.35;5.50;;;27.50;83.50;;;;;;5091773;28;20036;-47
2022/05/24 07:23:09;;;;;;;19.00;5.20;;;27.50;83.60;;;;;;5086741;28;20080;-47
2022/05/24 07:25:37;;;;;;;16.60;5.05;;;27.50;83.50;;;;;;5086648;28;20032;-51
2022/05/24 07:28:04;;;;;;;16.77;4.90;;;27.50;83.50;;;;;;5086381;28;20020;-50
2022/05/24 07:30:32;;;;;;;18.65;5.38;;;27.50;83.50;;;;;;5086648;28;20024;-51
2022/05/24 07:33:00;;;;;;;14.30;4.50;;;27.60;83.60;;;;;;5086446;28;20079;-51
2022/05/24 07:35:27;;;;;;;16.23;5.07;;;27.50;83.50;;;;;;5086445;28;20374;-48
2022/05/24 07:37:53;;;;;;;18.75;4.88;;;27.50;83.60;;;;;;5086514;28;20024;-47
2022/05/24 07:45:56;;;;;;;15.40;5.15;;;27.40;83.60;;;;;;5086301;28;20027;-55
2022/05/24 07:48:24;;;;;;;15.32;4.72;;;27.50;83.70;;;;;;5086195;28;20066;-50
2022/05/24 07:50:51;;;;;;;16.75;5.22;;;27.50;83.90;;;;;;5086306;28;20035;-55
2022/05/24 07:53:18;;;;;;;14.60;5.00;;;27.50;83.90;;;;;;5085990;28;20012;-49
2022/05/24 07:55:45;;;;;;;14.02;4.88;;;27.50;83.80;;;;;;5086304;28;20031;-50
2022/05/24 07:58:13;;;;;;;15.88;4.82;;;27.50;84.00;;;;;;5086098;28;20335;-53
2022/05/24 08:00:40;;;;;;;16.52;5.05;;;27.50;84.10;;;;;;5085962;28;20037;-52
2022/05/24 08:03:06;;;;;;;16.83;4.57;;;27.50;84.00;;;;;;5085988;28;20091;-55
2022/05/24 08:05:34;;;;;;;13.80;4.78;;;27.50;84.00;;;;;;5085987;28;20028;-48
2022/05/24 08:08:03;;;;;;;14.15;4.75;;;27.50;84.10;;;;;;5085659;28;20387;-55
2022/05/24 08:10:30;;;;;;;16.25;5.35;;;27.50;84.10;;;;;;5086042;28;20364;-50
2022/05/24 08:12:57;;;;;;;18.15;4.82;;;27.50;84.10;;;;;;5085724;28;20020;-47
2022/05/24 08:15:25;;;;;;;18.45;5.53;;;27.50;84.20;;;;;;5085603;28;20304;-46
2022/05/24 08:17:52;;;;;;;16.30;5.07;;;27.50;84.30;;;;;;5022599;28;20203;-54
2022/05/24 08:20:20;;;;;;;13.27;4.78;;;27.50;84.40;;;;;;5003147;28;20037;-51
2022/05/24 08:22:47;;;;;;;14.93;4.40;;;27.50;84.40;;;;;;5003008;28;20249;-53
2022/05/24 08:25:14;;;;;;;15.13;4.30;;;27.50;84.40;;;;;;5003291;28;20207;-49
2022/05/24 08:27:41;;;;;;;19.52;4.82;;;27.50;84.40;;;;;;5003049;28;20018;-47
2022/05/24 08:30:10;;;;;;;15.18;4.68;;;27.50;84.50;;;;;;5002954;28;20030;-49
2022/05/24 08:32:37;;;;;;;18.88;5.13;;;27.50;84.40;;;;;;5003046;28;20328;-55
2022/05/24 08:35:06;;;;;;;14.38;5.03;;;27.50;84.50;;;;;;5002958;28;20057;-51
2022/05/24 08:37:32;;;;;;;19.27;5.50;;;27.50;84.40;;;;;;5002820;28;20338;-49
2022/05/24 08:39:59;;;;;;;17.67;5.47;;;27.50;84.40;;;;;;5002809;28;20022;-49
2022/05/24 08:42:29;;;;;;;21.10;5.47;;;27.50;84.40;;;;;;5002796;28;20018;-51
2022/05/24 08:50:47;;;;;;;14.33;5.00;;;27.40;84.50;;;;;;5002661;28;20063;-52
2022/05/24 08:53:21;;;;;;;16.38;4.97;;;27.40;84.50;;;;;;5002896;28;20018;-54
2022/05/24 08:55:48;;;;;;;18.70;5.38;;;27.40;84.50;;;;;;5002861;28;20041;-48
2022/05/24 08:58:34;;;;;;;17.38;4.85;;;27.40;84.40;;;;;;5002697;28;20252;-52
2022/05/24 09:01:02;;;;;;;15.23;5.10;;;27.40;84.50;;;;;;5002774;28;20038;-55
2022/05/24 09:03:29;;;;;;;17.17;4.93;;;27.50;84.60;;;;;;5002456;28;20301;-49
2022/05/24 09:06:21;;;;;;;17.02;5.20;;;27.40;84.60;;;;;;5002429;28;20037;-49
2022/05/24 09:09:03;;;;;;;19.15;5.03;;;27.40;84.60;;;;;;5006053;28;20030;-50
2022/05/24 09:12:05;;;;;;;16.13;4.75;;;27.40;84.60;;;;;;5002741;28;20202;-56
2022/05/24 09:14:59;;;;;;;19.77;5.95;;;27.40;84.70;;;;;;5002311;28;20049;-53
2022/05/24 09:17:54;;;;;;;21.83;5.75;;;27.40;84.70;;;;;;5002031;28;20046;-49
2022/05/24 09:20:29;;;;;;;18.30;5.22;;;27.40;84.80;;;;;;5002183;28;20031;-55
2022/05/24 09:23:09;;;;;;;18.23;5.40;;;27.40;84.80;;;;;;5001978;28;20019;-48
2022/05/24 09:25:35;;;;;;;19.27;5.45;;;27.40;84.90;;;;;;5002619;28;20039;-50
2022/05/24 09:28:02;;;;;;;21.48;6.00;;;27.40;84.80;;;;;;5001971;28;20026;-49
2022/05/24 09:30:29;;;;;;;18.17;5.13;;;27.30;84.80;;;;;;5002260;28;20022;-48
2022/05/24 09:33:23;;;;;;;18.63;5.72;;;27.30;84.80;;;;;;5002062;28;20210;-47
2022/05/24 09:35:55;;;;;;;17.10;4.90;;;27.30;84.80;;;;;;5001449;28;20262;-48
2022/05/24 09:38:27;;;;;;;19.27;5.45;;;27.30;84.80;;;;;;5001972;28;20018;-46
2022/05/24 09:41:04;;;;;;;14.23;5.10;;;27.30;84.80;;;;;;5002219;28;20077;-50
2022/05/24 09:43:35;;;;;;;20.33;5.07;;;27.30;84.80;;;;;;5001978;28;20214;-48
2022/05/24 09:46:11;;;;;;;17.00;5.55;;;27.30;84.80;;;;;;5002084;28;20085;-51
2022/05/24 09:48:56;;;;;;;15.80;5.25;;;27.30;84.80;;;;;;5001884;28;20063;-48
2022/05/24 09:51:35;;;;;;;23.65;6.22;;;27.30;84.80;;;;;;5002060;28;20309;-50
2022/05/24 09:54:25;;;;;;;22.92;5.75;;;27.30;84.90;;;;;;5001808;28;20022;-50
2022/05/24 09:57:08;;;;;;;20.63;5.82;;;27.30;84.80;;;;;;5002775;28;20038;-53
2022/05/24 09:59:39;;;;;;;18.20;5.68;;;27.30;84.90;;;;;;5001587;28;20023;-53
2022/05/24 10:02:23;;;;;;;22.92;5.75;;;27.30;84.80;;;;;;5001653;28;20026;-57
2022/05/24 10:04:49;;;;;;;18.08;5.35;;;27.30;84.80;;;;;;5001780;28;20119;-49
2022/05/24 10:07:25;;;;;;;20.38;5.57;;;27.30;84.70;;;;;;5001463;28;20022;-51
2022/05/24 10:10:08;;;;;;;19.05;5.50;;;27.30;84.70;;;;;;5001506;28;20067;-53
2022/05/24 10:12:51;;;;;;;24.23;5.68;;;27.30;84.80;;;;;;5001424;28;20382;-47
2022/05/24 10:15:23;;;;;;;21.33;5.55;;;27.30;84.90;;;;;;5001492;28;20211;-51
2022/05/24 10:18:18;;;;;;;18.83;5.40;;;27.30;84.90;;;;;;5001408;28;20144;-56
2022/05/24 10:21:02;;;;;;;17.45;5.50;;;27.30;84.90;;;;;;5001568;28;20057;-48
2022/05/24 10:23:41;;;;;;;19.98;5.65;;;27.30;85.10;;;;;;5001622;28;20014;-46
2022/05/24 10:26:39;;;;;;;18.73;5.35;;;27.20;85.10;;;;;;5001736;28;20319;-46
2022/05/24 10:29:16;;;;;;;24.17;6.50;;;27.30;85.30;;;;;;5001112;28;20037;-51
2022/05/24 10:31:56;;;;;;;22.98;6.50;;;27.20;85.50;;;;;;5001637;28;20333;-53
2022/05/24 10:41:02;;;;;;;16.30;5.78;;;27.20;85.60;;;;;;5001265;28;20057;-56
2022/05/24 10:43:56;;;;;;;25.55;6.10;;;27.20;85.70;;;;;;5001144;28;20018;-50
2022/05/24 10:46:44;;;;;;;23.75;5.93;;;27.20;85.80;;;;;;5001543;28;20310;-52
2022/05/24 10:49:22;;;;;;;20.65;6.85;;;27.20;85.90;;;;;;5003147;28;20050;-55
2022/05/24 10:52:10;;;;;;;18.33;5.75;;;27.20;85.90;;;;;;5004776;28;20014;-51
2022/05/24 10:54:55;;;;;;;18.88;6.25;;;27.20;85.70;;;;;;5005197;28;20023;-52
2022/05/24 10:57:57;;;;;;;20.75;6.32;;;27.20;85.70;;;;;;5004483;28;20075;-53
2022/05/24 11:00:29;;;;;;;24.40;6.80;;;27.20;85.60;;;;;;5058430;28;20034;-50
2022/05/24 11:03:15;;;;;;;22.15;6.03;;;27.20;85.70;;;;;;5004212;28;20322;-48
2022/05/24 11:05:59;;;;;;;19.02;6.15;;;27.20;85.90;;;;;;5004320;28;20213;-55
2022/05/24 11:08:52;;;;;;;18.98;6.38;;;27.20;85.80;;;;;;5004202;28;20084;-51
2022/05/24 11:11:43;;;;;;;18.55;6.43;;;27.20;85.90;;;;;;5004278;28;20029;-51
2022/05/24 11:14:28;;;;;;;24.45;6.57;;;27.20;86.20;;;;;;5004268;28;20038;-52
2022/05/24 11:16:56;;;;;;;21.05;6.43;;;27.20;86.00;;;;;;5005572;28;20098;-55
2022/05/24 11:19:39;;;;;;;25.10;6.72;;;27.20;86.20;;;;;;5022085;28;20022;-53
2022/05/24 11:22:28;;;;;;;23.38;6.53;;;27.20;86.30;;;;;;5023650;28;20037;-49
2022/05/24 11:25:27;;;;;;;22.42;6.40;;;27.20;86.40;;;;;;5023502;28;20022;-50
2022/05/24 11:28:00;;;;;;;22.20;6.20;;;27.20;86.60;;;;;;5023476;28;20018;-53
2022/05/24 11:30:40;;;;;;;26.95;6.72;;;27.20;86.70;;;;;;5023779;28;20022;-60
2022/05/24 11:33:15;;;;;;;23.38;6.00;;;27.20;86.70;;;;;;5023541;28;20310;-53
2022/05/24 11:35:45;;;;;;;18.38;5.78;;;27.20;87.00;;;;;;5023666;28;20029;-53
2022/05/24 11:38:22;;;;;;;22.63;6.10;;;27.10;86.70;;;;;;5023409;28;20236;-54
2022/05/24 11:40:55;;;;;;;21.70;6.15;;;27.20;86.70;;;;;;5023514;28;20029;-50
2022/05/24 11:43:43;;;;;;;22.98;6.00;;;27.20;86.70;;;;;;5018541;28;20045;-48
2022/05/24 11:46:10;;;;;;;21.38;6.22;;;27.30;86.60;;;;;;5003726;28;20041;-54
2022/05/24 11:48:49;;;;;;;21.55;6.65;;;27.20;86.50;;;;;;5003582;28;20026;-56
2022/05/24 11:51:46;;;;;;;19.77;6.10;;;27.20;86.30;;;;;;5016591;28;20034;-54
2022/05/24 11:54:17;;;;;;;24.85;6.50;;;27.30;86.40;;;;;;5009197;28;20093;-51
2022/05/24 11:57:02;;;;;;;19.67;6.53;;;27.30;86.40;;;;;;5003925;28;20034;-50
2022/05/24 11:59:41;;;;;;;16.83;5.78;;;27.30;86.00;;;;;;5000353;28;20058;-50
2022/05/24 12:02:26;;;;;;;17.45;6.38;;;27.30;86.20;;;;;;4998830;28;20022;-47
2022/05/24 12:08:22;;;;;;;25.52;7.00;;;27.30;86.60;;;;;;5006636;28;20054;-48
2022/05/24 12:10:51;;;;;;;24.20;6.95;;;27.30;86.60;;;;;;4984231;28;20094;-53
2022/05/24 12:13:31;;;;;;;26.63;7.18;;;27.30;86.50;;;;;;4983755;28;20026;-54
2022/05/24 12:16:01;;;;;;;21.70;6.60;;;27.30;86.60;;;;;;4984156;28;20352;-55
2022/05/24 12:18:42;;;;;;;19.00;6.82;;;27.30;86.80;;;;;;4983462;28;20043;-47
2022/05/24 12:21:09;;;;;;;24.15;6.13;;;27.30;86.90;;;;;;4984157;28;20057;-55
2022/05/24 12:23:42;;;;;;;22.00;7.60;;;27.30;86.90;;;;;;4982951;28;20031;-48
2022/05/24 12:26:12;;;;;;;25.40;7.75;;;27.30;87.30;;;;;;4982148;28;20042;-48
2022/05/24 12:28:39;;;;;;;22.13;6.57;;;27.30;87.10;;;;;;4982025;28;20265;-50
2022/05/24 12:31:29;;;;;;;20.70;6.82;;;27.30;87.30;;;;;;4982117;28;20053;-59
2022/05/24 12:33:57;;;;;;;24.27;6.88;;;27.30;87.30;;;;;;4981908;28;20329;-56
2022/05/24 12:36:47;;;;;;;18.50;6.88;;;27.30;87.00;;;;;;4982012;28;20342;-48
2022/05/24 12:39:21;;;;;;;23.52;7.18;;;27.30;86.90;;;;;;4982382;28;20053;-55
2022/05/24 12:41:52;;;;;;;25.98;7.05;;;27.30;87.10;;;;;;4983725;28;20031;-48
2022/05/24 12:44:25;;;;;;;25.30;7.63;;;27.40;87.00;;;;;;4983184;28;20026;-48
2022/05/24 12:47:11;;;;;;;20.70;7.22;;;27.40;87.30;;;;;;4983531;28;20027;-48
2022/05/24 12:49:56;;;;;;;20.77;7.10;;;27.30;87.20;;;;;;4983346;28;20068;-48
2022/05/24 12:52:40;;;;;;;25.95;8.18;;;27.40;87.10;;;;;;4983311;28;20050;-50
2022/05/24 12:55:54;;;;;;;24.33;7.88;;;27.40;87.00;;;;;;4983129;28;20022;-49
2022/05/24 12:58:14;;;;;;;27.33;7.93;;;27.40;87.00;;;;;;4983243;28;20088;-50
2022/05/24 13:00:41;;;;;;;23.17;7.32;;;27.50;87.00;;;;;;4983192;28;20027;-50
2022/05/24 13:03:08;;;;;;;18.80;7.38;;;27.50;87.00;;;;;;4983144;28;20335;-54
2022/05/24 13:05:40;;;;;;;24.27;7.53;;;27.50;87.40;;;;;;4983165;28;20057;-52
2022/05/24 13:08:08;;;;;;;25.75;7.60;;;27.50;87.40;;;;;;4982792;28;20054;-50
2022/05/24 13:10:37;;;;;;;28.85;7.78;;;27.50;87.40;;;;;;4982283;28;20299;-49
2022/05/24 13:13:21;;;;;;;26.48;7.10;;;27.50;87.70;;;;;;4982916;28;20050;-51
2022/05/24 13:15:51;;;;;;;20.85;7.30;;;27.50;87.70;;;;;;4983033;28;20030;-48
2022/05/24 13:18:19;;;;;;;23.23;7.13;;;27.50;87.50;;;;;;4982692;28;20070;-51
2022/05/24 13:20:52;;;;;;;24.95;7.30;;;27.50;87.60;;;;;;4982892;28;20042;-51
2022/05/24 13:23:27;;;;;;;22.80;7.47;;;27.50;87.90;;;;;;4982578;28;20102;-55
2022/05/24 13:25:56;;;;;;;19.70;6.85;;;27.60;87.60;;;;;;4982628;28;20054;-53
2022/05/24 13:28:56;;;;;;;17.33;6.93;;;27.60;87.60;;;;;;4982917;28;20302;-52
2022/05/24 13:34:32;;;;;;;21.83;7.23;;;27.70;87.50;;;;;;4982550;28;20124;-48
2022/05/24 13:37:02;;;;;;;22.58;7.28;;;27.60;87.50;;;;;;4982483;28;20554;-50
2022/05/24 13:39:53;;;;;;;17.83;6.45;;;27.70;87.50;;;;;;4982350;28;20053;-52
2022/05/24 13:42:25;;;;;;;23.48;6.60;;;27.70;87.50;;;;;;4982633;28;20035;-56
2022/05/24 13:45:16;;;;;;;22.60;7.18;;;27.70;87.60;;;;;;4982407;28;20188;-49
2022/05/24 13:47:54;;;;;;;22.80;6.38;;;27.70;87.60;;;;;;4982724;28;20034;-51
2022/05/24 13:50:45;;;;;;;19.02;6.55;;;27.70;87.70;;;;;;4982551;28;20057;-57